createdAt,value
2019-02-02T00:02:40.443Z,76.40
2019-02-02T00:05:11.544Z,76.60
2019-02-02T00:07:42.481Z,76.60
2019-02-02T00:10:13.176Z,76.20
2019-02-02T00:12:44.141Z,75.90
2019-02-02T00:15:14.758Z,76.40
2019-02-02T00:17:45.547Z,75.70
2019-02-02T00:20:16.272Z,75.80
2019-02-02T00:22:47.259Z,75.90
2019-02-02T00:25:18.150Z,75.90
2019-02-02T00:27:49.482Z,76.00
2019-02-02T00:30:20.253Z,76.00
2019-02-02T00:32:51.307Z,76.20
2019-02-02T00:35:22.118Z,76.30
2019-02-02T00:37:53.150Z,76.50
2019-02-02T00:40:23.893Z,76.70
2019-02-02T00:42:55.224Z,76.70
2019-02-02T00:45:26.553Z,76.90
2019-02-02T00:47:57.445Z,77.20
2019-02-02T00:50:28.433Z,77.10
2019-02-02T00:53:01.227Z,77.30
2019-02-02T00:55:31.850Z,77.20
2019-02-02T00:58:02.584Z,77.20
2019-02-02T01:00:33.193Z,77.20
2019-02-02T01:03:04.773Z,77.50
2019-02-02T01:05:35.807Z,77.40
2019-02-02T01:08:06.863Z,77.60
2019-02-02T01:10:38.143Z,77.90
2019-02-02T01:13:09.015Z,78.30
2019-02-02T01:15:40.145Z,79.20
2019-02-02T01:18:11.179Z,79.30
2019-02-02T01:20:41.894Z,79.20
2019-02-02T01:23:12.788Z,80.20
2019-02-02T01:25:43.445Z,80.00
2019-02-02T01:28:14.527Z,80.00
2019-02-02T01:30:45.537Z,80.50
2019-02-02T01:33:17.020Z,80.90
2019-02-02T01:35:47.652Z,81.00
2019-02-02T01:38:18.500Z,80.80
2019-02-02T01:40:49.091Z,81.00
2019-02-02T01:43:19.823Z,80.00
2019-02-02T01:45:50.613Z,79.60
2019-02-02T01:48:21.493Z,80.30
2019-02-02T01:50:52.183Z,79.10
2019-02-02T01:53:23.094Z,78.90
2019-02-02T01:55:54.421Z,78.70
2019-02-02T01:58:24.941Z,78.50
2019-02-02T02:00:55.805Z,78.30
2019-02-02T02:03:26.455Z,78.00
2019-02-02T02:05:57.014Z,77.80
2019-02-02T02:08:28.251Z,77.50
2019-02-02T02:10:59.111Z,77.30
2019-02-02T02:13:30.028Z,77.30
2019-02-02T02:16:00.581Z,77.00
2019-02-02T02:18:31.185Z,77.10
2019-02-02T02:21:01.807Z,77.30
2019-02-02T02:23:32.470Z,77.30
2019-02-02T02:26:03.203Z,76.70
2019-02-02T02:28:33.833Z,76.50
2019-02-02T02:31:04.981Z,76.30
2019-02-02T02:33:35.820Z,75.80
2019-02-02T02:36:06.467Z,75.40
2019-02-02T02:38:37.641Z,75.30
2019-02-02T02:41:08.218Z,75.00
2019-02-02T02:43:38.952Z,75.00
2019-02-02T02:46:09.901Z,74.90
2019-02-02T02:48:40.833Z,74.80
2019-02-02T02:51:11.692Z,74.90
2019-02-02T02:53:42.387Z,76.30
2019-02-02T02:56:13.553Z,76.40
2019-02-02T02:58:44.178Z,75.40
2019-02-02T03:01:14.693Z,75.00
2019-02-02T03:03:45.193Z,74.10
2019-02-02T03:06:16.933Z,73.30
2019-02-02T03:08:47.642Z,73.60
2019-02-02T03:11:18.468Z,73.40
2019-02-02T03:13:49.058Z,73.50
2019-02-02T03:16:20.835Z,73.70
2019-02-02T03:18:51.479Z,73.40
2019-02-02T03:21:22.584Z,73.00
2019-02-02T03:23:53.477Z,72.90
2019-02-02T03:26:24.217Z,73.60
2019-02-02T03:28:55.014Z,72.80
2019-02-02T03:31:25.809Z,72.80
2019-02-02T03:33:56.879Z,73.00
2019-02-02T03:36:27.448Z,72.30
2019-02-02T03:38:58.390Z,72.00
2019-02-02T03:41:29.595Z,71.60
2019-02-02T03:44:00.397Z,71.70
2019-02-02T03:46:30.949Z,71.40
2019-02-02T03:49:01.972Z,71.30
2019-02-02T03:51:32.667Z,71.00
2019-02-02T03:54:09.115Z,71.60
2019-02-02T03:56:35.783Z,71.70
2019-02-02T03:59:07.275Z,71.70
2019-02-02T04:01:37.945Z,72.60
2019-02-02T04:04:08.351Z,72.80
2019-02-02T04:06:38.892Z,72.80
2019-02-02T04:09:10.227Z,72.80
2019-02-02T04:11:43.390Z,73.20
2019-02-02T04:14:13.292Z,73.60
2019-02-02T04:16:44.286Z,73.70
2019-02-02T04:19:14.737Z,73.70
2019-02-02T04:21:45.672Z,73.90
2019-02-02T04:24:16.332Z,74.90
2019-02-02T04:26:47.103Z,75.90
2019-02-02T04:29:18.186Z,76.60
2019-02-02T04:31:49.407Z,76.60
2019-02-02T04:34:20.317Z,78.80
2019-02-02T04:36:51.239Z,78.60
2019-02-02T04:39:21.880Z,78.60
2019-02-02T04:41:52.837Z,78.30
2019-02-02T04:44:23.329Z,78.50
2019-02-02T04:46:54.283Z,78.20
2019-02-02T04:49:24.853Z,78.70
2019-02-02T04:51:55.611Z,78.10
2019-02-02T04:54:26.323Z,77.80
2019-02-02T04:56:57.105Z,77.90
2019-02-02T04:59:29.317Z,77.50
2019-02-02T05:01:59.819Z,77.50
2019-02-02T05:04:30.498Z,77.30
2019-02-02T05:07:01.114Z,77.50
2019-02-02T05:09:32.063Z,77.40
2019-02-02T05:12:02.719Z,77.90
2019-02-02T05:14:33.207Z,77.70
2019-02-02T05:17:03.827Z,77.40
2019-02-02T05:19:34.663Z,77.70
2019-02-02T05:22:05.267Z,77.30
2019-02-02T05:24:36.173Z,76.50
2019-02-02T05:27:06.689Z,76.60
2019-02-02T05:29:41.631Z,75.40
2019-02-02T05:32:09.861Z,74.80
2019-02-02T05:34:40.779Z,74.20
2019-02-02T05:37:11.724Z,73.50
2019-02-02T05:39:42.304Z,73.40
2019-02-02T05:42:13.244Z,73.00
2019-02-02T05:44:43.861Z,72.80
2019-02-02T05:47:14.638Z,73.10
2019-02-02T05:49:45.392Z,72.70
2019-02-02T05:52:16.032Z,71.90
2019-02-02T05:54:46.998Z,72.20
2019-02-02T05:57:17.607Z,72.10
2019-02-02T05:59:52.923Z,71.60
2019-02-02T06:02:20.426Z,71.40
2019-02-02T06:04:51.119Z,71.40
2019-02-02T06:07:22.058Z,71.50
2019-02-02T06:09:52.666Z,71.40
2019-02-02T06:12:23.480Z,71.60
2019-02-02T06:14:54.496Z,72.00
2019-02-02T06:17:25.511Z,72.40
2019-02-02T06:19:56.397Z,72.70
2019-02-02T06:22:27.253Z,72.60
2019-02-02T06:24:57.813Z,73.70
2019-02-02T06:27:28.682Z,74.00
2019-02-02T06:30:04.458Z,74.40
2019-02-02T06:32:32.224Z,74.50
2019-02-02T06:35:03.449Z,74.60
2019-02-02T06:37:34.558Z,75.60
2019-02-02T06:40:05.777Z,74.70
2019-02-02T06:42:36.637Z,74.60
2019-02-02T06:45:09.200Z,74.90
2019-02-02T06:47:40.127Z,75.40
2019-02-02T06:50:12.863Z,74.90
2019-02-02T06:52:43.906Z,74.30
2019-02-02T06:55:16.120Z,74.20
2019-02-02T06:57:46.874Z,73.90
2019-02-02T07:00:20.503Z,74.00
2019-02-02T07:02:51.923Z,73.90
2019-02-02T07:05:22.900Z,73.90
2019-02-02T07:07:53.876Z,73.20
2019-02-02T07:10:26.099Z,73.30
2019-02-02T07:12:56.858Z,72.80
2019-02-02T07:15:29.132Z,72.80
2019-02-02T07:17:59.636Z,72.90
2019-02-02T07:20:30.364Z,73.30
2019-02-02T07:23:01.987Z,73.00
2019-02-02T07:25:32.681Z,72.90
2019-02-02T07:28:03.418Z,72.90
2019-02-02T07:30:34.342Z,73.00
2019-02-02T07:33:05.038Z,72.90
2019-02-02T07:35:36.062Z,72.90
2019-02-02T07:38:06.840Z,72.90
2019-02-02T07:40:38.078Z,72.80
2019-02-02T07:43:08.853Z,72.30
2019-02-02T07:45:40.021Z,72.50
2019-02-02T07:48:10.710Z,72.80
2019-02-02T07:50:41.585Z,73.00
2019-02-02T07:53:12.287Z,72.80
2019-02-02T07:55:44.088Z,72.90
2019-02-02T07:58:14.777Z,72.90
2019-02-02T08:00:45.843Z,72.90
2019-02-02T08:03:16.679Z,72.90
2019-02-02T08:05:47.643Z,73.30
2019-02-02T08:08:18.593Z,73.40
2019-02-02T08:10:49.424Z,73.20
2019-02-02T08:13:20.411Z,73.30
2019-02-02T08:15:51.509Z,73.00
2019-02-02T08:18:23.186Z,72.90
2019-02-02T08:20:54.048Z,73.20
2019-02-02T08:23:25.050Z,73.70
2019-02-02T08:25:55.896Z,73.50
2019-02-02T08:28:26.846Z,73.40
2019-02-02T08:30:58.166Z,73.80
2019-02-02T08:33:29.210Z,73.60
2019-02-02T08:36:00.252Z,73.60
2019-02-02T08:38:32.095Z,73.70
2019-02-02T08:41:02.818Z,73.70
2019-02-02T08:43:34.586Z,73.50
2019-02-02T08:46:05.692Z,73.20
2019-02-02T08:48:36.584Z,73.20
2019-02-02T08:51:08.246Z,73.20
2019-02-02T08:53:39.392Z,73.20
2019-02-02T08:56:09.920Z,73.00
2019-02-02T08:58:40.862Z,72.80
2019-02-02T09:01:11.445Z,72.50
2019-02-02T09:03:42.412Z,72.20
2019-02-02T09:06:13.197Z,72.10
2019-02-02T09:08:44.236Z,72.40
2019-02-02T09:11:14.955Z,72.40
2019-02-02T09:13:45.752Z,72.50
2019-02-02T09:16:16.723Z,72.90
2019-02-02T09:18:50.884Z,72.90
2019-02-02T09:21:20.523Z,72.90
2019-02-02T09:23:51.659Z,72.90
2019-02-02T09:26:22.458Z,72.90
2019-02-02T09:28:53.205Z,72.80
2019-02-02T09:31:24.201Z,72.60
2019-02-02T09:33:55.089Z,72.60
2019-02-02T09:36:26.231Z,72.40
2019-02-02T09:38:57.022Z,72.10
2019-02-02T09:41:27.916Z,72.30
2019-02-02T09:43:58.495Z,71.70
2019-02-02T09:46:29.184Z,71.60
2019-02-02T09:48:59.887Z,71.30
2019-02-02T09:51:30.980Z,71.30
2019-02-02T09:54:01.903Z,70.90
2019-02-02T09:56:33.264Z,70.90
2019-02-02T09:59:03.958Z,70.60
2019-02-02T10:01:34.470Z,70.90
2019-02-02T10:04:05.718Z,70.90
2019-02-02T10:06:36.583Z,70.90
2019-02-02T10:09:09.980Z,71.00
2019-02-02T10:11:40.961Z,71.10
2019-02-02T10:14:11.915Z,71.40
2019-02-02T10:16:42.626Z,71.30
2019-02-02T10:19:14.621Z,71.60
2019-02-02T10:21:46.124Z,71.60
2019-02-02T10:24:17.062Z,71.40
2019-02-02T10:26:47.831Z,71.30
2019-02-02T10:29:18.562Z,71.60
2019-02-02T10:31:49.537Z,71.80
2019-02-02T10:34:20.470Z,71.00
2019-02-02T10:36:51.040Z,70.70
2019-02-02T10:39:21.891Z,70.50
2019-02-02T10:41:52.905Z,70.40
2019-02-02T10:44:23.635Z,70.40
2019-02-02T10:46:54.453Z,70.30
2019-02-02T10:49:25.607Z,70.30
2019-02-02T10:51:58.040Z,70.10
2019-02-02T10:54:28.890Z,69.80
2019-02-02T10:56:59.821Z,70.00
2019-02-02T10:59:31.058Z,70.10
2019-02-02T11:02:02.179Z,69.70
2019-02-02T11:04:33.717Z,69.70
2019-02-02T11:07:04.794Z,69.70
2019-02-02T11:09:36.099Z,70.10
2019-02-02T11:12:06.949Z,70.30
2019-02-02T11:14:37.892Z,69.70
2019-02-02T11:17:09.399Z,69.80
2019-02-02T11:19:40.280Z,69.70
2019-02-02T11:22:11.154Z,69.80
2019-02-02T11:24:41.982Z,69.70
2019-02-02T11:27:13.056Z,69.60
2019-02-02T11:29:43.909Z,69.30
2019-02-02T11:32:15.025Z,69.30
2019-02-02T11:34:45.963Z,69.10
2019-02-02T11:37:17.988Z,68.70
2019-02-02T11:39:48.775Z,68.20
2019-02-02T11:42:19.460Z,68.00
2019-02-02T11:44:50.779Z,68.50
2019-02-02T11:47:21.567Z,68.00
2019-02-02T11:49:52.692Z,67.70
2019-02-02T11:52:23.546Z,67.70
2019-02-02T11:54:54.125Z,67.90
2019-02-02T11:57:25.139Z,68.30
2019-02-02T11:59:55.729Z,68.70
2019-02-02T12:02:26.734Z,69.60
2019-02-02T12:04:57.371Z,68.70
2019-02-02T12:07:28.237Z,68.90
2019-02-02T12:09:58.981Z,68.70
2019-02-02T12:12:29.649Z,68.50
2019-02-02T12:15:00.656Z,68.70
2019-02-02T12:17:31.588Z,68.60
2019-02-02T12:20:03.325Z,68.40
2019-02-02T12:22:34.534Z,68.50
2019-02-02T12:25:06.354Z,68.80
2019-02-02T12:27:39.055Z,69.20
2019-02-02T12:30:15.702Z,69.10
2019-02-02T12:32:46.678Z,69.90
2019-02-02T12:35:19.656Z,69.20
2019-02-02T12:37:50.573Z,69.20
2019-02-02T12:40:24.609Z,69.10
2019-02-02T12:42:55.696Z,69.00
2019-02-02T12:45:36.484Z,68.90
2019-02-02T12:48:07.453Z,68.70
2019-02-02T12:50:38.267Z,68.50
2019-02-02T12:53:09.079Z,68.80
2019-02-02T12:55:39.834Z,68.80
2019-02-02T12:58:10.984Z,68.70
2019-02-02T13:00:44.320Z,68.80
2019-02-02T13:03:15.332Z,68.90
2019-02-02T13:05:46.629Z,68.90
2019-02-02T13:08:17.303Z,69.40
2019-02-02T13:10:48.014Z,69.10
2019-02-02T13:13:19.054Z,68.90
2019-02-02T13:15:49.940Z,68.90
2019-02-02T13:18:20.527Z,68.90
2019-02-02T13:20:51.530Z,69.10
2019-02-02T13:23:22.390Z,69.10
2019-02-02T13:26:04.623Z,69.30
2019-02-02T13:28:26.464Z,68.90
2019-02-02T13:30:58.074Z,69.10
2019-02-02T13:33:29.133Z,69.30
2019-02-02T13:35:59.705Z,69.10
2019-02-02T13:38:31.948Z,68.90
2019-02-02T13:41:02.749Z,69.20
2019-02-02T13:43:33.258Z,69.30
2019-02-02T13:46:04.287Z,69.50
2019-02-02T13:48:34.884Z,69.10
2019-02-02T13:51:06.244Z,69.50
2019-02-02T13:53:37.151Z,69.50
2019-02-02T13:56:07.987Z,69.60
2019-02-02T13:58:38.884Z,69.60
2019-02-02T14:01:09.762Z,69.50
2019-02-02T14:03:40.750Z,69.80
2019-02-02T14:06:11.724Z,70.00
2019-02-02T14:08:42.650Z,70.20
2019-02-02T14:11:13.458Z,70.40
2019-02-02T14:13:44.489Z,70.20
2019-02-02T14:16:15.423Z,69.80
2019-02-02T14:18:47.621Z,70.10
2019-02-02T14:21:18.496Z,70.50
2019-02-02T14:23:49.392Z,70.00
2019-02-02T14:26:20.312Z,69.80
2019-02-02T14:28:51.030Z,69.80
2019-02-02T14:31:21.839Z,69.80
2019-02-02T14:33:52.821Z,70.10
2019-02-02T14:36:23.666Z,70.40
2019-02-02T14:38:54.529Z,70.40
2019-02-02T14:41:25.517Z,70.10
2019-02-02T14:43:56.336Z,70.30
2019-02-02T14:46:26.856Z,70.50
2019-02-02T14:48:57.818Z,70.30
2019-02-02T14:51:28.773Z,70.00
2019-02-02T14:53:59.446Z,70.00
2019-02-02T14:56:30.297Z,70.30
2019-02-02T14:59:03.569Z,70.90
2019-02-02T15:01:33.962Z,71.20
2019-02-02T15:04:05.015Z,71.40
2019-02-02T15:06:36.137Z,71.40
2019-02-02T15:09:08.312Z,71.50
2019-02-02T15:11:40.536Z,71.30
2019-02-02T15:14:12.095Z,71.30
2019-02-02T15:16:42.871Z,71.40
2019-02-02T15:19:13.699Z,71.60
2019-02-02T15:21:44.612Z,71.70
2019-02-02T15:24:15.103Z,71.60
2019-02-02T15:26:46.097Z,72.30
2019-02-02T15:29:16.666Z,71.80
2019-02-02T15:31:47.917Z,72.20
2019-02-02T15:34:18.928Z,71.40
2019-02-02T15:36:50.363Z,71.40
2019-02-02T15:39:21.042Z,71.30
2019-02-02T15:41:53.194Z,71.50
2019-02-02T15:44:24.320Z,71.60
2019-02-02T15:46:55.263Z,71.90
2019-02-02T15:49:27.566Z,71.90
2019-02-02T15:51:58.094Z,71.70
2019-02-02T15:54:28.776Z,71.40
2019-02-02T15:56:59.827Z,71.10
2019-02-02T15:59:31.628Z,70.70
2019-02-02T16:02:02.935Z,70.10
2019-02-02T16:04:33.948Z,70.30
2019-02-02T16:07:04.813Z,69.90
2019-02-02T16:09:35.622Z,70.70
2019-02-02T16:12:07.345Z,70.10
2019-02-02T16:14:38.258Z,69.60
2019-02-02T16:17:09.106Z,70.30
2019-02-02T16:19:40.933Z,69.60
2019-02-02T16:22:11.583Z,69.50
2019-02-02T16:24:42.269Z,69.70
2019-02-02T16:27:12.918Z,70.00
2019-02-02T16:29:43.719Z,70.10
2019-02-02T16:32:14.925Z,70.50
2019-02-02T16:34:45.827Z,70.60
2019-02-02T16:37:16.594Z,70.70
2019-02-02T16:39:50.201Z,70.70
2019-02-02T16:42:21.213Z,71.20
2019-02-02T16:44:52.755Z,71.20
2019-02-02T16:47:24.018Z,71.40
2019-02-02T16:49:54.836Z,71.60
2019-02-02T16:52:25.685Z,71.90
2019-02-02T16:54:56.352Z,72.00
2019-02-02T16:57:27.621Z,72.10
2019-02-02T16:59:58.760Z,72.70
2019-02-02T17:02:29.911Z,73.30
2019-02-02T17:05:00.765Z,73.40
2019-02-02T17:07:32.108Z,73.40
2019-02-02T17:10:03.254Z,73.90
2019-02-02T17:12:34.951Z,74.50
2019-02-02T17:15:06.882Z,74.00
2019-02-02T17:17:38.069Z,74.10
2019-02-02T17:20:12.227Z,74.20
2019-02-02T17:22:42.989Z,75.00
2019-02-02T17:25:16.121Z,75.00
2019-02-02T17:27:47.049Z,75.00
2019-02-02T17:30:19.802Z,74.60
2019-02-02T17:32:51.731Z,74.30
2019-02-02T17:35:22.570Z,73.90
2019-02-02T17:37:53.460Z,73.60
2019-02-02T17:40:26.304Z,73.20
2019-02-02T17:42:57.363Z,72.80
2019-02-02T17:45:28.493Z,72.20
2019-02-02T17:47:59.330Z,71.90
2019-02-02T17:50:30.118Z,72.10
2019-02-02T17:53:01.774Z,71.90
2019-02-02T17:55:32.508Z,72.50
2019-02-02T17:58:03.306Z,71.90
2019-02-02T18:00:42.124Z,71.60
2019-02-02T18:03:13.340Z,71.20
2019-02-02T18:05:44.026Z,71.20
2019-02-02T18:08:15.797Z,71.50
2019-02-02T18:10:46.746Z,71.20
2019-02-02T18:13:17.923Z,71.30
2019-02-02T18:15:48.562Z,71.20
2019-02-02T18:18:19.479Z,71.00
2019-02-02T18:20:51.335Z,70.90
2019-02-02T18:23:22.705Z,71.40
2019-02-02T18:25:53.579Z,71.40
2019-02-02T18:28:24.499Z,71.40
2019-02-02T18:30:55.310Z,71.70
2019-02-02T18:33:28.935Z,71.50
2019-02-02T18:36:01.006Z,71.60
2019-02-02T18:38:32.736Z,71.80
2019-02-02T18:41:03.544Z,72.00
2019-02-02T18:43:35.393Z,72.00
2019-02-02T18:46:06.600Z,71.90
2019-02-02T18:48:37.742Z,72.60
2019-02-02T18:51:09.487Z,72.10
2019-02-02T18:53:41.638Z,72.20
2019-02-02T18:56:14.726Z,72.20
2019-02-02T18:58:45.549Z,72.40
2019-02-02T19:01:16.568Z,72.50
2019-02-02T19:03:47.418Z,72.50
2019-02-02T19:06:18.139Z,73.40
2019-02-02T19:08:49.222Z,72.90
2019-02-02T19:11:20.526Z,73.00
2019-02-02T19:13:51.681Z,73.40
2019-02-02T19:16:23.536Z,73.50
2019-02-02T19:18:54.642Z,73.60
2019-02-02T19:21:25.945Z,73.60
2019-02-02T19:23:56.882Z,73.60
2019-02-02T19:26:28.246Z,73.70
2019-02-02T19:28:59.708Z,74.10
2019-02-02T19:31:32.312Z,74.00
2019-02-02T19:34:04.819Z,74.10
2019-02-02T19:36:35.726Z,74.20
2019-02-02T19:39:08.966Z,74.40
2019-02-02T19:41:40.236Z,74.40
2019-02-02T19:44:11.440Z,74.90
2019-02-02T19:46:42.550Z,75.00
2019-02-02T19:49:13.293Z,75.10
2019-02-02T19:51:44.678Z,75.10
2019-02-02T19:54:15.527Z,75.20
2019-02-02T19:56:46.403Z,75.30
2019-02-02T19:59:17.395Z,75.30
2019-02-02T20:01:48.358Z,75.40
2019-02-02T20:04:19.557Z,75.40
2019-02-02T20:06:50.473Z,75.30
2019-02-02T20:09:21.015Z,75.40
2019-02-02T20:11:51.859Z,75.20
2019-02-02T20:14:22.820Z,75.00
2019-02-02T20:16:55.295Z,74.80
2019-02-02T20:19:26.448Z,74.60
2019-02-02T20:21:59.073Z,74.30
2019-02-02T20:24:30.076Z,73.60
2019-02-02T20:27:01.157Z,73.60
2019-02-02T20:29:32.259Z,73.40
2019-02-02T20:32:03.087Z,73.60
2019-02-02T20:34:34.278Z,73.70
2019-02-02T20:37:05.026Z,73.60
2019-02-02T20:39:35.969Z,73.70
2019-02-02T20:42:08.243Z,73.60
2019-02-02T20:44:39.259Z,73.60
2019-02-02T20:47:10.500Z,73.60
2019-02-02T20:49:41.862Z,73.60
2019-02-02T20:52:13.227Z,73.70
2019-02-02T20:54:44.320Z,74.40
2019-02-02T20:57:15.343Z,73.60
2019-02-02T20:59:46.861Z,73.60
2019-02-02T21:02:17.876Z,73.60
2019-02-02T21:04:48.951Z,73.80
2019-02-02T21:07:19.982Z,74.10
2019-02-02T21:09:51.040Z,74.40
2019-02-02T21:12:21.776Z,74.60
2019-02-02T21:14:53.629Z,75.00
2019-02-02T21:17:24.507Z,75.30
2019-02-02T21:19:55.811Z,75.60
2019-02-02T21:22:27.075Z,75.60
2019-02-02T21:24:58.094Z,75.90
2019-02-02T21:27:30.775Z,76.00
2019-02-02T21:30:01.694Z,75.50
2019-02-02T21:32:32.954Z,75.70
2019-02-02T21:35:03.629Z,75.50
2019-02-02T21:37:34.594Z,75.40
2019-02-02T21:40:09.841Z,75.40
2019-02-02T21:42:41.060Z,75.40
2019-02-02T21:45:16.182Z,75.50
2019-02-02T21:47:50.989Z,75.70
2019-02-02T21:50:23.147Z,75.80
2019-02-02T21:52:54.542Z,75.90
2019-02-02T21:55:27.181Z,75.80
2019-02-02T21:57:58.157Z,75.60
2019-02-02T22:00:31.512Z,75.70
2019-02-02T22:03:02.805Z,75.10
2019-02-02T22:05:33.634Z,75.00
2019-02-02T22:08:04.898Z,75.20
2019-02-02T22:10:35.725Z,75.40
2019-02-02T22:13:08.002Z,75.30
2019-02-02T22:15:39.082Z,75.40
2019-02-02T22:18:10.319Z,75.30
2019-02-02T22:20:41.848Z,75.00
2019-02-02T22:23:12.806Z,75.20
2019-02-02T22:25:43.677Z,75.50
2019-02-02T22:28:14.388Z,75.30
2019-02-02T22:30:45.256Z,75.10
2019-02-02T22:33:15.823Z,75.30
2019-02-02T22:35:46.490Z,76.20
2019-02-02T22:38:18.552Z,75.40
2019-02-02T22:40:49.266Z,75.30
2019-02-02T22:43:20.257Z,75.30
2019-02-02T22:45:50.991Z,75.10
2019-02-02T22:48:21.629Z,75.30
2019-02-02T22:50:52.307Z,75.50
2019-02-02T22:53:23.096Z,75.40
2019-02-02T22:55:54.219Z,75.10
2019-02-02T22:58:25.394Z,75.80
2019-02-02T23:01:17.146Z,76.00
2019-02-02T23:04:16.484Z,76.20
2019-02-02T23:07:00.276Z,76.80
2019-02-02T23:10:07.038Z,78.70
2019-02-02T23:12:58.098Z,79.70
2019-02-02T23:16:21.082Z,79.80
2019-02-02T23:18:52.354Z,79.90
2019-02-02T23:21:23.534Z,79.50
2019-02-02T23:23:54.566Z,79.00
2019-02-02T23:26:25.307Z,79.40
2019-02-02T23:28:55.975Z,80.60
2019-02-02T23:31:27.275Z,80.40
2019-02-02T23:33:58.298Z,80.20
2019-02-02T23:36:29.478Z,80.50
2019-02-02T23:39:00.349Z,80.40
2019-02-02T23:41:32.770Z,80.40
2019-02-02T23:44:03.483Z,81.00
2019-02-02T23:46:35.187Z,80.50
2019-02-02T23:49:06.598Z,81.10
2019-02-02T23:51:38.032Z,81.50
2019-02-02T23:54:08.616Z,81.50
2019-02-02T23:56:39.231Z,80.90
2019-02-02T23:59:12.584Z,81.60
